WetterOnline ( https://www.wetteronline.de )

Wetter aktuell Mittelndorf

Aktuelles Wetter: Lichtenhain/Mittelndorf (352m)

6-stündlich | Neueste Meldungen
Ortszeit Temperatur Wetter
Sa, 13.08. 14:00 21.5° C bedeckt
Sa, 13.08. 8:00 15.9° C bewölkt
Sa, 13.08. 2:00 17.8° C wolkenlos
Fr, 12.08. 20:00 24.1° C leicht bewölkt
Fr, 12.08. 14:00 26.1° C wolkenlos
Fr, 12.08. 8:00 14.0° C leicht bewölkt
Fr, 12.08. 2:00 16.0° C wolkenlos
Do, 11.08. 20:00 23.8° C wolkenlos
Ortszeit Temperatur Wetter
Sa, 13.08. 14:00 21.5° C bedeckt
Sa, 13.08. 13:50 21.5° C bedeckt
Sa, 13.08. 13:40 22.2° C bedeckt
Sa, 13.08. 13:30 21.6° C bedeckt
Sa, 13.08. 13:20 21.6° C bedeckt
Sa, 13.08. 13:10 21.5° C bedeckt
Sa, 13.08. 13:00 21.5° C bewölkt
Sa, 13.08. 12:30 21.2° C bedeckt
Sa, 13.08. 12:00 20.7° C bewölkt
Sa, 13.08. 11:30 19.5° C bedeckt
Sa, 13.08. 11:00 17.8° C bewölkt
Ortszeit Relative Feuchte Sichtweite
Sa, 13.08. 14:00 70% 40 km
Sa, 13.08. 8:00 72% 65 km
Sa, 13.08. 2:00 64% 60 km
Fr, 12.08. 20:00 40% >70 km
Fr, 12.08. 14:00 37% 60 km
Fr, 12.08. 8:00 69% 65 km
Fr, 12.08. 2:00 58% 65 km
Do, 11.08. 20:00 34% 65 km
Ortszeit Relative Feuchte Sichtweite
Sa, 13.08. 14:00 70% 40 km
Sa, 13.08. 13:50 70% -
Sa, 13.08. 13:40 68% -
Sa, 13.08. 13:30 69% 35 km
Sa, 13.08. 13:20 69% -
Sa, 13.08. 13:10 70% -
Sa, 13.08. 13:00 70% 50 km
Sa, 13.08. 12:30 72% 40 km
Sa, 13.08. 12:00 74% 45 km
Sa, 13.08. 11:30 71% 55 km
Sa, 13.08. 11:00 72% 60 km
Ortszeit Niederschlagsmenge Niederschlagsart
Sa, 13.08. 14:00 0.1 l/m2 in 6 Std. Regen
Sa, 13.08. 8:00 0.0 l/m2 in 12 Std. -
Sa, 13.08. 2:00 0.0 l/m2 in 6 Std. -
Fr, 12.08. 20:00 0.0 l/m2 in 12 Std. -
Fr, 12.08. 14:00 0.0 l/m2 in 6 Std. -
Fr, 12.08. 8:00 0.0 l/m2 in 12 Std. -
Fr, 12.08. 2:00 0.0 l/m2 in 6 Std. -
Do, 11.08. 20:00 0.0 l/m2 in 12 Std. -
Ortszeit Niederschlagsmenge Niederschlagsart
Sa, 13.08. 14:00 0.0 l/m2 in 1 Std. Regen
Sa, 13.08. 13:50 keine Meldung -
Sa, 13.08. 13:40 keine Meldung -
Sa, 13.08. 13:30 0.0 l/m2 in 1 Std. -
Sa, 13.08. 13:20 keine Meldung -
Sa, 13.08. 13:10 keine Meldung -
Sa, 13.08. 13:00 0.0 l/m2 in 1 Std. -
Sa, 13.08. 12:30 0.0 l/m2 in 1 Std. -
Sa, 13.08. 12:00 0.0 l/m2 in 1 Std. -
Sa, 13.08. 11:30 0.0 l/m2 in 1 Std. -
Sa, 13.08. 11:00 0.1 l/m2 in 1 Std. Regen
Ortszeit Stärke Spitze Richtung
km/h Bft. km/h Grad Sektor
Sa, 13.08. 14:00 11 2 43 30° NO
Sa, 13.08. 8:00 6 1 11 280° W
Sa, 13.08. 2:00 7 2 22 100° O
Fr, 12.08. 20:00 11 2 43 70° O
Fr, 12.08. 14:00 22 4 43 60° NO
Fr, 12.08. 8:00 6 1 13 60° NO
Fr, 12.08. 2:00 9 2 20 100° O
Do, 11.08. 20:00 13 3 37 90° O
Ortszeit Stärke Spitze Richtung
km/h Bft. km/h Grad Sektor
Sa, 13.08. 14:00 11 2 25 30° NO
Sa, 13.08. 13:50 11 2 - 30° NO
Sa, 13.08. 13:40 9 2 - 50° NO
Sa, 13.08. 13:30 11 2 22 40° NO
Sa, 13.08. 13:20 11 2 - 40° NO
Sa, 13.08. 13:10 14 3 - 50° NO
Sa, 13.08. 13:00 11 2 40 50° NO
Sa, 13.08. 12:30 14 3 40 70° O
Sa, 13.08. 12:00 22 4 43 60° NO
Sa, 13.08. 11:30 6 1 15 40° NO
Sa, 13.08. 11:00 7 2 14 210° SW
Ortszeit Untergrenze Bedeckung Gattung
total tief tief mittel hoch
Sa, 13.08. 14:00 630 m 8/8 8/8 - - -
Sa, 13.08. 8:00 1800 m 7/8 6/8 - - -
Sa, 13.08. 2:00 - 0/8 0/8 - - -
Fr, 12.08. 20:00 7800 m 3/8 0/8 - - -
Fr, 12.08. 14:00 - 0/8 0/8 - - -
Fr, 12.08. 8:00 3000 m 2/8 1/8 - - -
Fr, 12.08. 2:00 - 0/8 0/8 - - -
Do, 11.08. 20:00 - 0/8 0/8 - - -
Ortszeit Bedeckungsgrad in Achtel und Wolkenuntergrenze
Sa, 13.08. 14:00 3(630m) 7(1110m) 8(1350m)
Sa, 13.08. 13:50 3(630m) 7(1110m) 8(1350m)
Sa, 13.08. 13:40 8
Sa, 13.08. 13:30 2(660m) 6(840m) 8(1080m)
Sa, 13.08. 13:20 2(660m) 6(840m) 8(1080m)
Sa, 13.08. 13:10 8
Sa, 13.08. 13:00 6(690m) 7(930m) 7(1500m)
Sa, 13.08. 12:30 6(630m) 7(780m) 8(1800m)
Sa, 13.08. 12:00 7(630m) 7(1080m)
Sa, 13.08. 11:30 7(600m) 8(1140m) 8(3300m)
Sa, 13.08. 11:00 6(480m) 7(1080m) 8(3000m)
Ortszeit Luftdruck NN (hPa) Tendenz (hPa in 3 Std.)
Sa, 13.08. 14:00 1017 - 0,7
Sa, 13.08. 8:00 1018 - 0,4
Sa, 13.08. 2:00 1019 - 0,2
Fr, 12.08. 20:00 1018 - 0,7
Fr, 12.08. 14:00 1020 - 1,4
Fr, 12.08. 8:00 1022 + 0,3
Fr, 12.08. 2:00 1022 + 0,2
Do, 11.08. 20:00 1021 - 0,5
Ortszeit Luftdruck NN (hPa) Tendenz (hPa in 3 Std.)
Sa, 13.08. 14:00 1017 - 0,7
Sa, 13.08. 13:50 1017 keine Meldung
Sa, 13.08. 13:40 1017 keine Meldung
Sa, 13.08. 13:30 1017 - 0,5
Sa, 13.08. 13:20 1017 keine Meldung
Sa, 13.08. 13:10 1017 keine Meldung
Sa, 13.08. 13:00 1017 - 0,4
Sa, 13.08. 12:30 1017 - 0,1
Sa, 13.08. 12:00 1017 - 0,1
Sa, 13.08. 11:30 1018 + 0,1
Sa, 13.08. 11:00 1018 + 0,1
Ortszeit Schneehöhe (cm)
Sa, 13.08. 14:00 0
Sa, 13.08. 8:00 0
Sa, 13.08. 2:00 0
Fr, 12.08. 20:00 0
Fr, 12.08. 14:00 0
Fr, 12.08. 8:00 0
Fr, 12.08. 2:00 0
Do, 11.08. 20:00 0
Ortszeit Schneehöhe (cm)
Sa, 13.08. 14:00 0
Sa, 13.08. 13:50 0
Sa, 13.08. 13:40 0
Sa, 13.08. 13:30 0
Sa, 13.08. 13:20 0
Sa, 13.08. 13:10 0
Sa, 13.08. 13:00 0
Sa, 13.08. 12:30 0
Sa, 13.08. 12:00 0
Sa, 13.08. 11:30 0
Sa, 13.08. 11:00 0
Link zu dieser Seite / Seite empfehlen

Das Wetter in ...